createdAt,value
2022-12-01T00:00:10.085Z,2.2
2022-12-01T00:05:10.091Z,2.1
2022-12-01T00:10:10.102Z,2.2
2022-12-01T00:15:10.090Z,2.2
2022-12-01T00:20:10.087Z,2.1
2022-12-01T00:25:10.101Z,2.1
2022-12-01T00:30:10.085Z,2.1
2022-12-01T00:35:10.092Z,2.1
2022-12-01T00:40:10.078Z,2.1
2022-12-01T00:45:10.099Z,2.1
2022-12-01T00:50:10.082Z,2.1
2022-12-01T00:55:10.090Z,2.1
2022-12-01T01:00:10.098Z,2.1
2022-12-01T01:05:10.116Z,2.1
2022-12-01T01:10:10.096Z,2.1
2022-12-01T01:15:10.089Z,2.1
2022-12-01T01:20:10.090Z,2.1
2022-12-01T01:25:10.108Z,2.1
2022-12-01T01:30:10.084Z,2.1
2022-12-01T01:35:10.088Z,2.1
2022-12-01T01:40:10.089Z,2.1
2022-12-01T01:45:10.105Z,2.1
2022-12-01T01:50:10.085Z,2.1
2022-12-01T01:55:10.108Z,2.1
2022-12-01T02:00:10.088Z,2.1
2022-12-01T02:05:10.099Z,2.1
2022-12-01T02:10:10.093Z,2.1
2022-12-01T02:15:10.095Z,2.1
2022-12-01T02:20:10.099Z,2.1
2022-12-01T02:25:10.236Z,2.1
2022-12-01T02:30:10.092Z,2.1
2022-12-01T02:35:10.095Z,2.1
2022-12-01T02:40:10.096Z,2.1
2022-12-01T02:45:10.098Z,2
2022-12-01T02:50:10.088Z,2.1
2022-12-01T02:55:10.103Z,2
2022-12-01T03:00:10.092Z,2
2022-12-01T03:05:10.085Z,2
2022-12-01T03:10:10.101Z,2
2022-12-01T03:15:10.100Z,1.9
2022-12-01T03:20:10.088Z,1.9
2022-12-01T03:25:10.093Z,1.9
2022-12-01T03:30:10.101Z,1.9
2022-12-01T03:35:10.098Z,1.9
2022-12-01T03:40:10.082Z,1.9
2022-12-01T03:45:10.092Z,1.9
2022-12-01T03:50:10.083Z,1.8
2022-12-01T03:55:10.096Z,1.8
2022-12-01T04:00:10.092Z,1.8
2022-12-01T04:05:10.099Z,1.8
2022-12-01T04:10:10.093Z,1.8
2022-12-01T04:15:10.092Z,1.8
2022-12-01T04:20:10.088Z,1.8
2022-12-01T04:25:10.107Z,1.8
2022-12-01T04:30:10.096Z,1.8
2022-12-01T04:35:10.102Z,1.8
2022-12-01T04:40:10.089Z,1.8
2022-12-01T04:45:10.128Z,1.8
2022-12-01T04:50:10.107Z,1.8
2022-12-01T04:55:10.092Z,1.8
2022-12-01T05:00:10.092Z,1.9
2022-12-01T05:05:10.095Z,1.9
2022-12-01T05:10:10.086Z,1.9
2022-12-01T05:15:10.091Z,1.9
2022-12-01T05:20:10.096Z,1.9
2022-12-01T05:25:10.089Z,1.9
2022-12-01T05:30:10.081Z,1.9
2022-12-01T05:35:10.087Z,1.9
2022-12-01T05:40:10.092Z,1.9
2022-12-01T05:45:10.090Z,1.9
2022-12-01T05:50:10.100Z,1.9
2022-12-01T05:55:10.093Z,1.9
2022-12-01T06:00:10.082Z,1.9
2022-12-01T06:05:10.096Z,2
2022-12-01T06:10:10.091Z,1.9
2022-12-01T06:15:10.094Z,2
2022-12-01T06:20:10.081Z,2
2022-12-01T06:25:10.097Z,2
2022-12-01T06:30:10.087Z,2
2022-12-01T06:35:10.106Z,2
2022-12-01T06:40:10.104Z,2.1
2022-12-01T06:45:10.093Z,2.1
2022-12-01T06:50:10.085Z,2.1
2022-12-01T06:55:10.093Z,2.1
2022-12-01T07:00:10.088Z,2.1
2022-12-01T07:05:10.104Z,2.1
2022-12-01T07:10:10.083Z,2.1
2022-12-01T07:15:10.096Z,2.1
2022-12-01T07:20:10.090Z,2.1
2022-12-01T07:25:10.106Z,2.1
2022-12-01T07:30:10.097Z,2.2
2022-12-01T07:35:10.111Z,2.2
2022-12-01T07:40:10.082Z,2.2
2022-12-01T07:45:10.085Z,2.3
2022-12-01T07:50:10.088Z,2.3
2022-12-01T07:55:10.129Z,2.3
2022-12-01T08:00:10.087Z,2.4
2022-12-01T08:05:10.092Z,2.4
2022-12-01T08:10:10.129Z,2.4
2022-12-01T08:15:10.100Z,2.5
2022-12-01T08:20:10.088Z,2.5
2022-12-01T08:25:10.112Z,2.6
2022-12-01T08:30:10.084Z,2.6
2022-12-01T08:35:10.109Z,2.7
2022-12-01T08:40:10.098Z,2.8
2022-12-01T08:45:10.104Z,2.8
2022-12-01T08:50:10.086Z,2.9
2022-12-01T08:55:10.088Z,3.1
2022-12-01T09:00:10.100Z,3.2
2022-12-01T09:05:10.099Z,3.3
2022-12-01T09:10:10.090Z,3.4
2022-12-01T09:15:10.085Z,3.5
2022-12-01T09:20:10.109Z,3.5
2022-12-01T09:25:10.094Z,3.6
2022-12-01T09:30:10.098Z,3.7
2022-12-01T09:35:10.103Z,3.8
2022-12-01T09:40:10.083Z,4
2022-12-01T09:45:10.097Z,4.2
2022-12-01T09:50:10.091Z,4.2
2022-12-01T09:55:10.093Z,4.3
2022-12-01T10:00:10.095Z,4.3
2022-12-01T10:05:10.140Z,4.5
2022-12-01T10:10:10.101Z,4.5
2022-12-01T10:15:10.098Z,4.7
2022-12-01T10:20:10.092Z,4.8
2022-12-01T10:25:10.095Z,4.8
2022-12-01T10:30:10.082Z,4.7
2022-12-01T10:35:10.102Z,4.8
2022-12-01T10:40:10.088Z,4.9
2022-12-01T10:45:10.099Z,4.8
2022-12-01T10:50:10.087Z,4.7
2022-12-01T10:55:10.088Z,4.6
2022-12-01T11:00:10.090Z,4.7
2022-12-01T11:05:10.087Z,4.7
2022-12-01T11:10:10.087Z,4.7
2022-12-01T11:15:10.097Z,4.7
2022-12-01T11:20:10.147Z,4.8
2022-12-01T11:25:10.097Z,4.8
2022-12-01T11:30:10.099Z,4.6
2022-12-01T11:35:10.096Z,4.7
2022-12-01T11:40:10.082Z,4.7
2022-12-01T11:45:10.096Z,4.7
2022-12-01T11:50:10.081Z,4.7
2022-12-01T11:55:10.362Z,4.7
2022-12-01T12:00:10.093Z,4.7
2022-12-01T12:05:10.095Z,4.7
2022-12-01T12:10:10.087Z,4.8
2022-12-01T12:15:10.093Z,4.8
2022-12-01T12:20:10.398Z,4.9
2022-12-01T12:25:10.090Z,4.9
2022-12-01T12:30:10.093Z,5.1
2022-12-01T12:35:10.095Z,5.2
2022-12-01T12:40:10.085Z,5.3
2022-12-01T12:45:10.111Z,5.4
2022-12-01T12:50:10.091Z,5.4
2022-12-01T12:55:10.096Z,5.4
2022-12-01T13:00:10.095Z,5.4
2022-12-01T13:05:10.110Z,5.4
2022-12-01T13:10:10.094Z,5.4
2022-12-01T13:15:10.094Z,5.4
2022-12-01T13:20:10.169Z,5.3
2022-12-01T13:25:10.101Z,5.3
2022-12-01T13:30:10.142Z,5.3
2022-12-01T13:35:10.097Z,5.3
2022-12-01T13:40:10.112Z,5.4
2022-12-01T13:45:10.094Z,5.4
2022-12-01T13:50:10.137Z,5.4
2022-12-01T13:55:10.108Z,5.4
2022-12-01T14:00:10.172Z,5.4
2022-12-01T14:05:10.093Z,5.4
2022-12-01T14:10:10.144Z,5.4
2022-12-01T14:15:10.093Z,5.4
2022-12-01T14:20:10.088Z,5.3
2022-12-01T14:25:10.092Z,5.3
2022-12-01T14:30:10.089Z,5.2
2022-12-01T14:35:10.104Z,5.2
2022-12-01T14:40:10.093Z,5.1
2022-12-01T14:45:10.235Z,5
2022-12-01T14:50:10.195Z,5
2022-12-01T14:55:10.096Z,5
2022-12-01T15:00:10.143Z,4.9
2022-12-01T15:05:10.091Z,4.9
2022-12-01T15:10:10.096Z,4.9
2022-12-01T15:15:10.100Z,4.8
2022-12-01T15:20:10.097Z,4.8
2022-12-01T15:25:10.096Z,4.7
2022-12-01T15:30:10.089Z,4.7
2022-12-01T15:35:10.091Z,4.6
2022-12-01T15:40:54.415Z,4.6
2022-12-01T15:45:10.094Z,4.5
2022-12-01T15:50:10.098Z,4.5
2022-12-01T15:55:10.095Z,4.4
2022-12-01T16:00:10.093Z,4.4
2022-12-01T16:05:10.093Z,4.3
2022-12-01T16:10:10.084Z,4.2
2022-12-01T16:15:10.114Z,4.2
2022-12-01T16:20:10.090Z,4.1
2022-12-01T16:25:10.097Z,4.1
2022-12-01T16:30:10.082Z,4
2022-12-01T16:35:10.106Z,4
2022-12-01T16:40:10.094Z,3.9
2022-12-01T16:45:10.090Z,3.8
2022-12-01T16:50:10.098Z,3.7
2022-12-01T16:55:10.100Z,3.7
2022-12-01T17:00:10.089Z,3.6
2022-12-01T17:05:10.085Z,3.5
2022-12-01T17:10:10.181Z,3.5
2022-12-01T17:15:10.093Z,3.5
2022-12-01T17:20:10.091Z,3.5
2022-12-01T17:25:10.087Z,3.3
2022-12-01T17:30:10.093Z,3.3
2022-12-01T17:35:10.092Z,3.4
2022-12-01T17:40:10.095Z,3.5
2022-12-01T17:45:10.095Z,3.5
2022-12-01T17:50:10.087Z,3.5
2022-12-01T17:55:10.089Z,3.4
2022-12-01T18:00:10.085Z,3.5
2022-12-01T18:05:10.141Z,3.5
2022-12-01T18:10:10.084Z,3.5
2022-12-01T18:15:10.093Z,3.5
2022-12-01T18:20:10.088Z,3.5
2022-12-01T18:25:10.101Z,3.5
2022-12-01T18:30:10.095Z,3.5
2022-12-01T18:35:10.095Z,3.5
2022-12-01T18:40:10.102Z,3.5
2022-12-01T18:45:10.091Z,3.5
2022-12-01T18:50:10.089Z,3.5
2022-12-01T18:55:10.095Z,3.4
2022-12-01T19:00:10.083Z,3.4
2022-12-01T19:05:10.087Z,3.4
2022-12-01T19:10:10.092Z,3.3
2022-12-01T19:15:10.094Z,3.3
2022-12-01T19:20:10.102Z,3.3
2022-12-01T19:25:10.091Z,3.2
2022-12-01T19:30:10.085Z,3.2
2022-12-01T19:35:10.095Z,3.2
2022-12-01T19:40:10.094Z,3.1
2022-12-01T19:45:10.105Z,3.1
2022-12-01T19:50:10.087Z,3.1
2022-12-01T19:55:10.091Z,3.1
2022-12-01T20:00:10.082Z,3.1
2022-12-01T20:05:10.093Z,3.1
2022-12-01T20:10:10.108Z,3.1
2022-12-01T20:15:10.096Z,3.1
2022-12-01T20:20:10.081Z,3
2022-12-01T20:25:10.093Z,3.1
2022-12-01T20:30:10.105Z,3.1
2022-12-01T20:35:10.096Z,3
2022-12-01T20:40:10.104Z,3
2022-12-01T20:45:10.095Z,3
2022-12-01T20:50:10.088Z,3
2022-12-01T20:55:10.097Z,2.9
2022-12-01T21:00:10.096Z,2.9
2022-12-01T21:05:10.105Z,2.9
2022-12-01T21:10:10.086Z,2.9
2022-12-01T21:15:10.092Z,2.8
2022-12-01T21:20:10.086Z,2.8
2022-12-01T21:25:10.089Z,2.8
2022-12-01T21:30:10.092Z,2.8
2022-12-01T21:35:10.093Z,2.8
2022-12-01T21:40:10.092Z,2.8
2022-12-01T21:45:10.103Z,2.7
2022-12-01T21:50:10.087Z,2.8
2022-12-01T21:55:10.113Z,2.8
2022-12-01T22:00:10.113Z,2.8
2022-12-01T22:05:10.123Z,2.7
2022-12-01T22:10:10.111Z,2.7
2022-12-01T22:15:10.105Z,2.7
2022-12-01T22:20:10.083Z,2.7
2022-12-01T22:25:10.100Z,2.7
2022-12-01T22:30:10.089Z,2.7
2022-12-01T22:35:10.093Z,2.7
2022-12-01T22:40:10.086Z,2.6
2022-12-01T22:45:10.085Z,2.6
2022-12-01T22:50:10.085Z,2.6
2022-12-01T22:55:10.086Z,2.6
2022-12-01T23:00:10.089Z,2.6
2022-12-01T23:05:10.093Z,2.6
2022-12-01T23:10:10.084Z,2.6
2022-12-01T23:15:10.093Z,2.6
2022-12-01T23:20:10.090Z,2.6
2022-12-01T23:25:10.088Z,2.6
2022-12-01T23:30:10.086Z,2.5
2022-12-01T23:35:10.089Z,2.6
2022-12-01T23:40:10.075Z,2.6
2022-12-01T23:45:10.091Z,2.6
2022-12-01T23:50:10.090Z,2.6
2022-12-01T23:55:10.100Z,2.6
